sensor_id;sensor_type;location;lat;lon;timestamp;pressure;altitude;pressure_sealevel;temperature;humidity
8717;BME280;4395;48.554;8.820;2023-03-01T00:00:43;96506.81;;;-1.81;100.00
8717;BME280;4395;48.554;8.820;2023-03-01T00:02:48;96493.47;;;-1.79;100.00
8717;BME280;4395;48.554;8.820;2023-03-01T00:04:50;96498.63;;;-1.70;100.00
8717;BME280;4395;48.554;8.820;2023-03-01T00:06:53;96490.50;;;-1.84;100.00
8717;BME280;4395;48.554;8.820;2023-03-01T00:08:56;96496.13;;;-1.79;100.00
8717;BME280;4395;48.554;8.820;2023-03-01T00:11:04;96497.94;;;-1.80;100.00
8717;BME280;4395;48.554;8.820;2023-03-01T00:13:07;96497.44;;;-1.75;100.00
8717;BME280;4395;48.554;8.820;2023-03-01T00:15:11;96485.84;;;-1.99;100.00
8717;BME280;4395;48.554;8.820;2023-03-01T00:17:14;96498.75;;;-1.79;100.00
8717;BME280;4395;48.554;8.820;2023-03-01T00:19:19;96485.78;;;-1.65;100.00
8717;BME280;4395;48.554;8.820;2023-03-01T00:21:24;96500.56;;;-1.80;100.00
8717;BME280;4395;48.554;8.820;2023-03-01T00:23:27;96498.78;;;-1.71;100.00
8717;BME280;4395;48.554;8.820;2023-03-01T00:25:30;96404.38;;;-2.50;100.00
8717;BME280;4395;48.554;8.820;2023-03-01T00:27:32;96503.19;;;-1.88;100.00
8717;BME280;4395;48.554;8.820;2023-03-01T00:29:35;96497.59;;;-1.85;100.00
8717;BME280;4395;48.554;8.820;2023-03-01T00:31:39;96492.66;;;-1.80;100.00
8717;BME280;4395;48.554;8.820;2023-03-01T00:33:43;96493.66;;;-1.73;100.00
8717;BME280;4395;48.554;8.820;2023-03-01T00:35:46;96488.38;;;-1.81;100.00
8717;BME280;4395;48.554;8.820;2023-03-01T00:37:48;96505.16;;;-1.90;100.00
8717;BME280;4395;48.554;8.820;2023-03-01T00:39:55;96495.63;;;-1.83;100.00
8717;BME280;4395;48.554;8.820;2023-03-01T00:41:57;96489.19;;;-1.88;100.00
8717;BME280;4395;48.554;8.820;2023-03-01T00:44:00;96488.84;;;-1.85;100.00
8717;BME280;4395;48.554;8.820;2023-03-01T00:46:04;96485.91;;;-1.82;100.00
8717;BME280;4395;48.554;8.820;2023-03-01T00:48:09;96479.00;;;-1.75;100.00
8717;BME280;4395;48.554;8.820;2023-03-01T00:50:11;96483.88;;;-2.05;100.00
8717;BME280;4395;48.554;8.820;2023-03-01T00:52:14;96487.97;;;-2.10;100.00
8717;BME280;4395;48.554;8.820;2023-03-01T00:54:17;96462.63;;;-2.03;100.00
8717;BME280;4395;48.554;8.820;2023-03-01T00:56:21;96472.22;;;-1.94;100.00
8717;BME280;4395;48.554;8.820;2023-03-01T00:58:24;96479.66;;;-1.81;100.00
8717;BME280;4395;48.554;8.820;2023-03-01T01:00:27;96476.63;;;-2.03;100.00
8717;BME280;4395;48.554;8.820;2023-03-01T01:02:32;96483.16;;;-2.15;100.00
8717;BME280;4395;48.554;8.820;2023-03-01T01:04:36;96478.22;;;-2.18;100.00
8717;BME280;4395;48.554;8.820;2023-03-01T01:06:41;96449.41;;;-2.19;100.00
8717;BME280;4395;48.554;8.820;2023-03-01T01:08:44;96459.63;;;-2.16;100.00
8717;BME280;4395;48.554;8.820;2023-03-01T01:10:47;96472.13;;;-2.18;100.00
8717;BME280;4395;48.554;8.820;2023-03-01T01:12:50;96461.53;;;-2.35;100.00
8717;BME280;4395;48.554;8.820;2023-03-01T01:14:52;96368.19;;;-2.91;100.00
8717;BME280;4395;48.554;8.820;2023-03-01T01:16:56;96456.47;;;-2.28;100.00
8717;BME280;4395;48.554;8.820;2023-03-01T01:18:58;96469.31;;;-2.25;100.00
8717;BME280;4395;48.554;8.820;2023-03-01T01:21:08;96445.97;;;-2.12;100.00
8717;BME280;4395;48.554;8.820;2023-03-01T01:23:11;96466.19;;;-2.20;100.00
8717;BME280;4395;48.554;8.820;2023-03-01T01:25:14;96455.59;;;-2.37;100.00
8717;BME280;4395;48.554;8.820;2023-03-01T01:27:17;96449.22;;;-2.26;100.00
8717;BME280;4395;48.554;8.820;2023-03-01T01:29:19;96446.09;;;-2.30;100.00
8717;BME280;4395;48.554;8.820;2023-03-01T01:31:23;96454.69;;;-2.19;100.00
8717;BME280;4395;48.554;8.820;2023-03-01T01:33:27;96447.06;;;-2.31;100.00
8717;BME280;4395;48.554;8.820;2023-03-01T01:35:29;96446.56;;;-2.34;100.00
8717;BME280;4395;48.554;8.820;2023-03-01T01:37:34;96444.47;;;-2.22;100.00
8717;BME280;4395;48.554;8.820;2023-03-01T01:39:37;96430.31;;;-2.21;100.00
8717;BME280;4395;48.554;8.820;2023-03-01T01:41:41;96435.84;;;-2.41;100.00
8717;BME280;4395;48.554;8.820;2023-03-01T01:43:46;96313.13;;;-3.26;100.00
8717;BME280;4395;48.554;8.820;2023-03-01T01:45:50;96379.59;;;-2.74;100.00
8717;BME280;4395;48.554;8.820;2023-03-01T01:47:54;96395.25;;;-2.64;100.00
8717;BME280;4395;48.554;8.820;2023-03-01T01:49:58;96448.09;;;-2.23;100.00
8717;BME280;4395;48.554;8.820;2023-03-01T01:52:05;96327.19;;;-3.01;100.00
8717;BME280;4395;48.554;8.820;2023-03-01T01:54:14;96423.03;;;-2.36;100.00
8717;BME280;4395;48.554;8.820;2023-03-01T01:56:18;96439.34;;;-2.32;100.00
8717;BME280;4395;48.554;8.820;2023-03-01T01:58:24;96439.50;;;-2.34;100.00
8717;BME280;4395;48.554;8.820;2023-03-01T02:00:29;96390.44;;;-2.43;100.00
8717;BME280;4395;48.554;8.820;2023-03-01T02:02:32;96440.28;;;-2.41;100.00
8717;BME280;4395;48.554;8.820;2023-03-01T02:04:35;96446.06;;;-2.38;100.00
8717;BME280;4395;48.554;8.820;2023-03-01T02:06:43;96440.50;;;-2.27;100.00
8717;BME280;4395;48.554;8.820;2023-03-01T02:08:49;96433.09;;;-2.31;100.00
8717;BME280;4395;48.554;8.820;2023-03-01T02:10:57;96426.31;;;-2.34;100.00
8717;BME280;4395;48.554;8.820;2023-03-01T02:13:02;96353.69;;;-2.95;100.00
8717;BME280;4395;48.554;8.820;2023-03-01T02:15:06;96348.13;;;-2.92;100.00
8717;BME280;4395;48.554;8.820;2023-03-01T02:17:10;96430.56;;;-2.41;100.00
8717;BME280;4395;48.554;8.820;2023-03-01T02:19:20;96384.34;;;-2.77;100.00
8717;BME280;4395;48.554;8.820;2023-03-01T02:21:33;96375.03;;;-2.64;100.00
8717;BME280;4395;48.554;8.820;2023-03-01T02:23:38;96403.59;;;-2.43;100.00
8717;BME280;4395;48.554;8.820;2023-03-01T02:25:47;96410.69;;;-2.35;100.00
8717;BME280;4395;48.554;8.820;2023-03-01T02:28:02;96378.25;;;-2.44;100.00
8717;BME280;4395;48.554;8.820;2023-03-01T02:30:10;96407.28;;;-2.19;100.00
8717;BME280;4395;48.554;8.820;2023-03-01T02:32:14;96392.44;;;-2.29;100.00
8717;BME280;4395;48.554;8.820;2023-03-01T02:34:20;96396.75;;;-2.19;100.00
8717;BME280;4395;48.554;8.820;2023-03-01T02:36:26;96413.78;;;-2.48;100.00
8717;BME280;4395;48.554;8.820;2023-03-01T02:38:32;96404.91;;;-2.47;100.00
8717;BME280;4395;48.554;8.820;2023-03-01T02:40:35;96409.38;;;-2.31;100.00
8717;BME280;4395;48.554;8.820;2023-03-01T02:42:46;96406.09;;;-2.33;100.00
8717;BME280;4395;48.554;8.820;2023-03-01T02:44:50;96382.53;;;-2.43;100.00
8717;BME280;4395;48.554;8.820;2023-03-01T02:46:56;96393.44;;;-2.21;100.00
8717;BME280;4395;48.554;8.820;2023-03-01T02:49:00;96344.16;;;-2.53;100.00
8717;BME280;4395;48.554;8.820;2023-03-01T02:51:07;96390.84;;;-2.13;100.00
8717;BME280;4395;48.554;8.820;2023-03-01T02:53:15;96388.22;;;-2.05;100.00
8717;BME280;4395;48.554;8.820;2023-03-01T02:55:19;96356.38;;;-2.44;100.00
8717;BME280;4395;48.554;8.820;2023-03-01T02:57:23;96377.31;;;-2.27;100.00
8717;BME280;4395;48.554;8.820;2023-03-01T02:59:30;96379.13;;;-2.27;100.00
8717;BME280;4395;48.554;8.820;2023-03-01T03:01:35;96371.75;;;-1.99;100.00
8717;BME280;4395;48.554;8.820;2023-03-01T03:03:42;96360.38;;;-2.08;100.00
8717;BME280;4395;48.554;8.820;2023-03-01T03:05:46;96368.31;;;-1.83;100.00
8717;BME280;4395;48.554;8.820;2023-03-01T03:07:50;96362.72;;;-1.72;100.00
8717;BME280;4395;48.554;8.820;2023-03-01T03:09:53;96367.50;;;-1.76;100.00
8717;BME280;4395;48.554;8.820;2023-03-01T03:11:56;96366.00;;;-1.86;100.00
8717;BME280;4395;48.554;8.820;2023-03-01T03:13:59;96340.63;;;-2.12;100.00
8717;BME280;4395;48.554;8.820;2023-03-01T03:16:03;96335.19;;;-2.18;100.00
8717;BME280;4395;48.554;8.820;2023-03-01T03:18:08;96358.28;;;-1.80;100.00
8717;BME280;4395;48.554;8.820;2023-03-01T03:20:16;96352.34;;;-1.98;100.00
8717;BME280;4395;48.554;8.820;2023-03-01T03:22:20;96356.59;;;-2.21;100.00
8717;BME280;4395;48.554;8.820;2023-03-01T03:24:23;96335.84;;;-2.24;100.00
8717;BME280;4395;48.554;8.820;2023-03-01T03:26:26;96350.34;;;-2.12;100.00
8717;BME280;4395;48.554;8.820;2023-03-01T03:28:29;96349.69;;;-1.74;100.00
8717;BME280;4395;48.554;8.820;2023-03-01T03:30:32;96365.19;;;-1.71;100.00
8717;BME280;4395;48.554;8.820;2023-03-01T03:32:35;96359.75;;;-1.61;100.00
8717;BME280;4395;48.554;8.820;2023-03-01T03:34:38;96370.44;;;-1.54;100.00
8717;BME280;4395;48.554;8.820;2023-03-01T03:36:42;96358.75;;;-1.44;100.00
8717;BME280;4395;48.554;8.820;2023-03-01T03:38:45;96354.28;;;-1.27;100.00
8717;BME280;4395;48.554;8.820;2023-03-01T03:40:48;96361.03;;;-1.24;100.00
8717;BME280;4395;48.554;8.820;2023-03-01T03:42:51;96339.28;;;-1.43;100.00
8717;BME280;4395;48.554;8.820;2023-03-01T03:44:54;96358.88;;;-1.21;100.00
8717;BME280;4395;48.554;8.820;2023-03-01T03:46:57;96358.66;;;-1.03;100.00
8717;BME280;4395;48.554;8.820;2023-03-01T03:48:59;96349.59;;;-1.01;100.00
8717;BME280;4395;48.554;8.820;2023-03-01T03:51:02;96351.25;;;-1.08;100.00
8717;BME280;4395;48.554;8.820;2023-03-01T03:53:11;96329.25;;;-1.47;100.00
8717;BME280;4395;48.554;8.820;2023-03-01T03:55:14;96366.81;;;-1.37;100.00
8717;BME280;4395;48.554;8.820;2023-03-01T03:57:20;96353.97;;;-1.40;100.00
8717;BME280;4395;48.554;8.820;2023-03-01T03:59:23;96358.06;;;-1.30;100.00
8717;BME280;4395;48.554;8.820;2023-03-01T04:01:26;96348.16;;;-1.27;100.00
8717;BME280;4395;48.554;8.820;2023-03-01T04:03:30;96335.50;;;-1.48;100.00
8717;BME280;4395;48.554;8.820;2023-03-01T04:05:35;96317.41;;;-1.68;100.00
8717;BME280;4395;48.554;8.820;2023-03-01T04:07:38;96342.09;;;-1.36;100.00
8717;BME280;4395;48.554;8.820;2023-03-01T04:09:43;96335.84;;;-1.59;100.00
8717;BME280;4395;48.554;8.820;2023-03-01T04:11:47;96349.03;;;-1.51;100.00
8717;BME280;4395;48.554;8.820;2023-03-01T04:13:50;96330.59;;;-1.59;100.00
8717;BME280;4395;48.554;8.820;2023-03-01T04:15:54;96312.28;;;-1.45;100.00
8717;BME280;4395;48.554;8.820;2023-03-01T04:17:57;96211.75;;;-2.05;100.00
8717;BME280;4395;48.554;8.820;2023-03-01T04:20:00;96312.78;;;-1.49;100.00
8717;BME280;4395;48.554;8.820;2023-03-01T04:22:07;96282.97;;;-1.50;100.00
8717;BME280;4395;48.554;8.820;2023-03-01T04:24:10;96328.50;;;-1.09;100.00
8717;BME280;4395;48.554;8.820;2023-03-01T04:26:15;96339.41;;;-1.12;100.00
8717;BME280;4395;48.554;8.820;2023-03-01T04:28:18;96322.56;;;-1.03;100.00
8717;BME280;4395;48.554;8.820;2023-03-01T04:30:20;96298.88;;;-1.27;100.00
8717;BME280;4395;48.554;8.820;2023-03-01T04:32:26;96330.13;;;-1.00;100.00
8717;BME280;4395;48.554;8.820;2023-03-01T04:34:30;96333.72;;;-0.92;100.00
8717;BME280;4395;48.554;8.820;2023-03-01T04:36:32;96328.97;;;-0.97;100.00
8717;BME280;4395;48.554;8.820;2023-03-01T04:38:37;96328.78;;;-0.95;100.00
8717;BME280;4395;48.554;8.820;2023-03-01T04:40:40;96330.09;;;-0.91;100.00
8717;BME280;4395;48.554;8.820;2023-03-01T04:42:45;96332.22;;;-0.87;100.00
8717;BME280;4395;48.554;8.820;2023-03-01T04:44:48;96343.09;;;-0.82;100.00
8717;BME280;4395;48.554;8.820;2023-03-01T04:46:52;96325.78;;;-0.84;100.00
8717;BME280;4395;48.554;8.820;2023-03-01T04:48:55;96320.09;;;-1.04;100.00
8717;BME280;4395;48.554;8.820;2023-03-01T04:50:58;96334.34;;;-0.82;100.00
8717;BME280;4395;48.554;8.820;2023-03-01T04:53:01;96324.34;;;-0.95;100.00
8717;BME280;4395;48.554;8.820;2023-03-01T04:55:04;96330.59;;;-0.88;100.00
8717;BME280;4395;48.554;8.820;2023-03-01T04:57:07;96319.25;;;-1.05;100.00
8717;BME280;4395;48.554;8.820;2023-03-01T04:59:12;96249.81;;;-1.44;100.00
8717;BME280;4395;48.554;8.820;2023-03-01T05:01:17;96319.59;;;-1.08;100.00
8717;BME280;4395;48.554;8.820;2023-03-01T05:03:21;96273.66;;;-1.21;100.00
8717;BME280;4395;48.554;8.820;2023-03-01T05:05:26;96326.81;;;-0.93;100.00
8717;BME280;4395;48.554;8.820;2023-03-01T05:07:29;96284.69;;;-1.26;100.00
8717;BME280;4395;48.554;8.820;2023-03-01T05:09:32;96316.66;;;-1.13;100.00
8717;BME280;4395;48.554;8.820;2023-03-01T05:11:34;96291.91;;;-1.12;100.00
8717;BME280;4395;48.554;8.820;2023-03-01T05:13:39;96311.50;;;-1.06;100.00
8717;BME280;4395;48.554;8.820;2023-03-01T05:15:43;96305.63;;;-1.24;100.00
8717;BME280;4395;48.554;8.820;2023-03-01T05:17:46;96317.81;;;-1.15;100.00
8717;BME280;4395;48.554;8.820;2023-03-01T05:19:48;96313.53;;;-1.16;100.00
8717;BME280;4395;48.554;8.820;2023-03-01T05:21:51;96302.81;;;-1.15;100.00
8717;BME280;4395;48.554;8.820;2023-03-01T05:24:07;96320.88;;;-0.95;100.00
8717;BME280;4395;48.554;8.820;2023-03-01T05:26:13;96305.97;;;-0.80;100.00
8717;BME280;4395;48.554;8.820;2023-03-01T05:28:29;96314.03;;;-0.74;100.00
8717;BME280;4395;48.554;8.820;2023-03-01T05:30:32;96321.13;;;-0.74;100.00
8717;BME280;4395;48.554;8.820;2023-03-01T05:32:36;96226.06;;;-1.36;100.00
8717;BME280;4395;48.554;8.820;2023-03-01T05:34:39;96324.75;;;-0.75;100.00
8717;BME280;4395;48.554;8.820;2023-03-01T05:36:42;96316.59;;;-0.57;100.00
8717;BME280;4395;48.554;8.820;2023-03-01T05:38:44;96310.13;;;-0.55;100.00
8717;BME280;4395;48.554;8.820;2023-03-01T05:40:48;96310.13;;;-0.55;100.00
8717;BME280;4395;48.554;8.820;2023-03-01T05:42:53;96308.78;;;-0.51;100.00
8717;BME280;4395;48.554;8.820;2023-03-01T05:44:56;96309.88;;;-0.68;100.00
8717;BME280;4395;48.554;8.820;2023-03-01T05:46:59;96181.97;;;-1.50;100.00
8717;BME280;4395;48.554;8.820;2023-03-01T05:49:03;96313.47;;;-0.61;100.00
8717;BME280;4395;48.554;8.820;2023-03-01T05:51:05;96308.97;;;-0.52;100.00
8717;BME280;4395;48.554;8.820;2023-03-01T05:53:10;96263.06;;;-0.74;100.00
8717;BME280;4395;48.554;8.820;2023-03-01T05:55:13;96312.84;;;-0.40;100.00
8717;BME280;4395;48.554;8.820;2023-03-01T05:57:16;96253.25;;;-0.97;100.00
8717;BME280;4395;48.554;8.820;2023-03-01T05:59:18;96308.44;;;-0.48;100.00
8717;BME280;4395;48.554;8.820;2023-03-01T06:01:21;96309.34;;;-0.63;100.00
8717;BME280;4395;48.554;8.820;2023-03-01T06:03:24;96301.88;;;-0.52;100.00
8717;BME280;4395;48.554;8.820;2023-03-01T06:05:28;96294.19;;;-0.39;100.00
8717;BME280;4395;48.554;8.820;2023-03-01T06:07:31;96299.94;;;-0.35;100.00
8717;BME280;4395;48.554;8.820;2023-03-01T06:09:34;96305.00;;;-0.25;100.00
8717;BME280;4395;48.554;8.820;2023-03-01T06:11:37;96311.47;;;-0.59;100.00
8717;BME280;4395;48.554;8.820;2023-03-01T06:13:41;96306.19;;;-0.59;100.00
8717;BME280;4395;48.554;8.820;2023-03-01T06:15:43;96294.34;;;-0.63;100.00
8717;BME280;4395;48.554;8.820;2023-03-01T06:17:46;96300.00;;;-0.43;100.00
8717;BME280;4395;48.554;8.820;2023-03-01T06:19:49;96302.16;;;-0.47;100.00
8717;BME280;4395;48.554;8.820;2023-03-01T06:21:53;96234.19;;;-0.76;100.00
8717;BME280;4395;48.554;8.820;2023-03-01T06:23:55;96305.47;;;-0.45;100.00
8717;BME280;4395;48.554;8.820;2023-03-01T06:25:58;96304.13;;;-0.41;100.00
8717;BME280;4395;48.554;8.820;2023-03-01T06:28:01;96288.44;;;-0.42;100.00
8717;BME280;4395;48.554;8.820;2023-03-01T06:30:06;96282.81;;;-0.70;100.00
8717;BME280;4395;48.554;8.820;2023-03-01T06:32:11;96292.03;;;-0.66;100.00
8717;BME280;4395;48.554;8.820;2023-03-01T06:34:14;96290.56;;;-0.69;100.00
8717;BME280;4395;48.554;8.820;2023-03-01T06:36:17;96204.97;;;-1.36;100.00
8717;BME280;4395;48.554;8.820;2023-03-01T06:38:23;96298.34;;;-0.75;100.00
8717;BME280;4395;48.554;8.820;2023-03-01T06:40:27;96281.19;;;-0.71;100.00
8717;BME280;4395;48.554;8.820;2023-03-01T06:42:29;96240.00;;;-0.80;100.00
8717;BME280;4395;48.554;8.820;2023-03-01T06:44:32;96300.06;;;-0.28;100.00
8717;BME280;4395;48.554;8.820;2023-03-01T06:46:35;96291.69;;;-0.09;100.00
8717;BME280;4395;48.554;8.820;2023-03-01T06:48:37;96288.16;;;-0.24;100.00
8717;BME280;4395;48.554;8.820;2023-03-01T06:50:40;96273.88;;;-0.38;100.00
8717;BME280;4395;48.554;8.820;2023-03-01T06:52:43;96282.41;;;-0.28;100.00
8717;BME280;4395;48.554;8.820;2023-03-01T06:54:48;96289.97;;;-0.02;100.00
8717;BME280;4395;48.554;8.820;2023-03-01T06:56:50;96299.09;;;0.18;100.00
8717;BME280;4395;48.554;8.820;2023-03-01T06:58:53;96228.69;;;-0.43;100.00
8717;BME280;4395;48.554;8.820;2023-03-01T07:00:56;96295.22;;;0.06;100.00
8717;BME280;4395;48.554;8.820;2023-03-01T07:03:00;96289.41;;;-0.12;100.00
8717;BME280;4395;48.554;8.820;2023-03-01T07:05:04;96292.84;;;-0.12;100.00
8717;BME280;4395;48.554;8.820;2023-03-01T07:07:07;96284.88;;;-0.04;100.00
8717;BME280;4395;48.554;8.820;2023-03-01T07:09:10;96292.59;;;0.06;100.00
8717;BME280;4395;48.554;8.820;2023-03-01T07:11:14;96288.91;;;0.30;100.00
8717;BME280;4395;48.554;8.820;2023-03-01T07:13:17;96244.06;;;-0.24;100.00
8717;BME280;4395;48.554;8.820;2023-03-01T07:15:19;96283.75;;;-0.09;100.00
8717;BME280;4395;48.554;8.820;2023-03-01T07:17:22;96284.88;;;-0.04;100.00
8717;BME280;4395;48.554;8.820;2023-03-01T07:19:25;96285.59;;;0.13;100.00
8717;BME280;4395;48.554;8.820;2023-03-01T07:21:28;96278.47;;;0.14;100.00
8717;BME280;4395;48.554;8.820;2023-03-01T07:23:30;96278.41;;;0.22;100.00
8717;BME280;4395;48.554;8.820;2023-03-01T07:25:33;96234.84;;;-0.05;100.00
8717;BME280;4395;48.554;8.820;2023-03-01T07:27:37;96272.97;;;0.01;100.00
8717;BME280;4395;48.554;8.820;2023-03-01T07:29:40;96269.09;;;0.11;100.00
8717;BME280;4395;48.554;8.820;2023-03-01T07:31:43;96268.72;;;-0.09;100.00
8717;BME280;4395;48.554;8.820;2023-03-01T07:33:46;96271.56;;;0.13;100.00
8717;BME280;4395;48.554;8.820;2023-03-01T07:35:55;96277.31;;;0.16;100.00
8717;BME280;4395;48.554;8.820;2023-03-01T07:37:58;96274.16;;;0.36;100.00
8717;BME280;4395;48.554;8.820;2023-03-01T07:40:01;96272.44;;;0.43;100.00
8717;BME280;4395;48.554;8.820;2023-03-01T07:42:04;96261.50;;;0.46;100.00
8717;BME280;4395;48.554;8.820;2023-03-01T07:44:08;96273.53;;;0.48;100.00
8717;BME280;4395;48.554;8.820;2023-03-01T07:46:12;96275.66;;;0.53;100.00
8717;BME280;4395;48.554;8.820;2023-03-01T07:48:14;96266.97;;;0.59;100.00
8717;BME280;4395;48.554;8.820;2023-03-01T07:50:17;96266.06;;;0.52;100.00
8717;BME280;4395;48.554;8.820;2023-03-01T07:52:20;96271.91;;;0.62;100.00
8717;BME280;4395;48.554;8.820;2023-03-01T07:54:23;96256.88;;;0.62;100.00
8717;BME280;4395;48.554;8.820;2023-03-01T07:56:27;96256.31;;;0.82;100.00
8717;BME280;4395;48.554;8.820;2023-03-01T07:58:31;96195.28;;;0.54;100.00
8717;BME280;4395;48.554;8.820;2023-03-01T08:00:35;96085.22;;;-0.06;100.00
8717;BME280;4395;48.554;8.820;2023-03-01T08:02:38;96254.22;;;0.92;100.00
8717;BME280;4395;48.554;8.820;2023-03-01T08:04:43;96258.06;;;0.89;100.00
8717;BME280;4395;48.554;8.820;2023-03-01T08:06:45;96248.81;;;1.15;100.00
8717;BME280;4395;48.554;8.820;2023-03-01T08:08:48;96255.84;;;1.08;100.00
8717;BME280;4395;48.554;8.820;2023-03-01T08:10:51;96242.63;;;0.63;100.00
8717;BME280;4395;48.554;8.820;2023-03-01T08:12:54;96233.25;;;0.61;100.00
8717;BME280;4395;48.554;8.820;2023-03-01T08:14:56;96243.47;;;0.64;100.00
8717;BME280;4395;48.554;8.820;2023-03-01T08:17:00;96258.50;;;0.49;100.00
8717;BME280;4395;48.554;8.820;2023-03-01T08:19:04;96232.91;;;0.12;100.00
8717;BME280;4395;48.554;8.820;2023-03-01T08:21:09;96198.84;;;-0.06;100.00
8717;BME280;4395;48.554;8.820;2023-03-01T08:23:12;96241.78;;;0.34;100.00
8717;BME280;4395;48.554;8.820;2023-03-01T08:25:15;96261.41;;;0.54;100.00
8717;BME280;4395;48.554;8.820;2023-03-01T08:27:18;96242.81;;;0.62;100.00
8717;BME280;4395;48.554;8.820;2023-03-01T08:29:21;96249.94;;;0.91;100.00
8717;BME280;4395;48.554;8.820;2023-03-01T08:31:26;96247.44;;;1.19;100.00
8717;BME280;4395;48.554;8.820;2023-03-01T08:33:30;96219.84;;;1.28;100.00
8717;BME280;4395;48.554;8.820;2023-03-01T08:35:33;96248.69;;;1.23;100.00
8717;BME280;4395;48.554;8.820;2023-03-01T08:37:36;96237.25;;;1.37;100.00
8717;BME280;4395;48.554;8.820;2023-03-01T08:39:38;96248.09;;;1.42;100.00
8717;BME280;4395;48.554;8.820;2023-03-01T08:41:42;96256.28;;;1.62;99.61
8717;BME280;4395;48.554;8.820;2023-03-01T08:43:47;96250.16;;;1.83;98.25
8717;BME280;4395;48.554;8.820;2023-03-01T08:45:50;96234.56;;;1.73;97.00
8717;BME280;4395;48.554;8.820;2023-03-01T08:47:53;96246.63;;;1.97;96.28
8717;BME280;4395;48.554;8.820;2023-03-01T08:49:57;96247.38;;;1.91;96.22
8717;BME280;4395;48.554;8.820;2023-03-01T08:51:59;96184.44;;;1.14;98.45
8717;BME280;4395;48.554;8.820;2023-03-01T08:54:04;96228.56;;;1.86;98.92
8717;BME280;4395;48.554;8.820;2023-03-01T08:56:07;96213.84;;;2.05;97.53
8717;BME280;4395;48.554;8.820;2023-03-01T08:58:10;96221.25;;;2.37;94.49
8717;BME280;4395;48.554;8.820;2023-03-01T09:00:13;96233.09;;;2.41;92.69
8717;BME280;4395;48.554;8.820;2023-03-01T09:02:18;96198.63;;;2.41;90.60
8717;BME280;4395;48.554;8.820;2023-03-01T09:04:21;96228.59;;;2.98;88.95
8717;BME280;4395;48.554;8.820;2023-03-01T09:06:25;96231.94;;;3.19;84.14
8717;BME280;4395;48.554;8.820;2023-03-01T09:08:28;96238.06;;;3.20;83.63
8717;BME280;4395;48.554;8.820;2023-03-01T09:10:31;96226.25;;;3.22;82.40
8717;BME280;4395;48.554;8.820;2023-03-01T09:12:34;96232.41;;;3.36;82.24
8717;BME280;4395;48.554;8.820;2023-03-01T09:14:37;96118.56;;;2.66;81.20
8717;BME280;4395;48.554;8.820;2023-03-01T09:16:40;96219.94;;;3.30;81.74
8717;BME280;4395;48.554;8.820;2023-03-01T09:18:43;96178.59;;;3.08;80.52
8717;BME280;4395;48.554;8.820;2023-03-01T09:20:46;96197.84;;;3.23;80.79
8717;BME280;4395;48.554;8.820;2023-03-01T09:22:50;96198.31;;;3.46;80.54
8717;BME280;4395;48.554;8.820;2023-03-01T09:24:53;96203.66;;;3.60;78.73
8717;BME280;4395;48.554;8.820;2023-03-01T09:26:57;96202.25;;;3.70;78.25
8717;BME280;4395;48.554;8.820;2023-03-01T09:29:00;96202.66;;;3.74;77.99
8717;BME280;4395;48.554;8.820;2023-03-01T09:31:04;96108.53;;;3.22;77.35
8717;BME280;4395;48.554;8.820;2023-03-01T09:33:07;96205.13;;;3.69;76.90
8717;BME280;4395;48.554;8.820;2023-03-01T09:35:16;96207.38;;;3.72;76.07
8717;BME280;4395;48.554;8.820;2023-03-01T09:37:19;96200.41;;;3.71;76.39
8717;BME280;4395;48.554;8.820;2023-03-01T09:39:23;96210.84;;;3.66;75.22
8717;BME280;4395;48.554;8.820;2023-03-01T09:41:42;96200.59;;;3.56;75.89
8717;BME280;4395;48.554;8.820;2023-03-01T09:43:49;96195.28;;;3.56;77.17
8717;BME280;4395;48.554;8.820;2023-03-01T09:46:00;96188.34;;;3.62;77.05
8717;BME280;4395;48.554;8.820;2023-03-01T09:48:12;96174.00;;;3.49;77.36
8717;BME280;4395;48.554;8.820;2023-03-01T09:50:17;96205.53;;;3.72;76.78
8717;BME280;4395;48.554;8.820;2023-03-01T09:52:25;96201.88;;;3.80;76.27
8717;BME280;4395;48.554;8.820;2023-03-01T09:54:32;96201.88;;;3.86;76.21
8717;BME280;4395;48.554;8.820;2023-03-01T09:56:39;96189.00;;;3.90;75.29
8717;BME280;4395;48.554;8.820;2023-03-01T09:58:48;96197.78;;;4.10;74.54
8717;BME280;4395;48.554;8.820;2023-03-01T10:00:56;96198.00;;;3.96;74.13
8717;BME280;4395;48.554;8.820;2023-03-01T10:03:04;96206.97;;;3.88;74.58
8717;BME280;4395;48.554;8.820;2023-03-01T10:05:19;96190.19;;;3.81;74.60
8717;BME280;4395;48.554;8.820;2023-03-01T10:07:30;96198.81;;;3.90;74.72
8717;BME280;4395;48.554;8.820;2023-03-01T10:09:38;96161.38;;;3.78;75.02
8717;BME280;4395;48.554;8.820;2023-03-01T10:11:44;96196.53;;;3.80;76.03
8717;BME280;4395;48.554;8.820;2023-03-01T10:13:54;96199.19;;;3.80;74.91
8717;BME280;4395;48.554;8.820;2023-03-01T10:16:04;96190.41;;;4.26;74.13
8717;BME280;4395;48.554;8.820;2023-03-01T10:18:13;96192.03;;;4.53;72.40
8717;BME280;4395;48.554;8.820;2023-03-01T10:20:20;96183.84;;;4.55;70.53
8717;BME280;4395;48.554;8.820;2023-03-01T10:22:26;96170.28;;;4.69;70.44
8717;BME280;4395;48.554;8.820;2023-03-01T10:24:32;96163.63;;;5.05;70.67
8717;BME280;4395;48.554;8.820;2023-03-01T10:26:46;96161.03;;;4.78;70.82
8717;BME280;4395;48.554;8.820;2023-03-01T10:28:57;96161.09;;;5.16;70.32
8717;BME280;4395;48.554;8.820;2023-03-01T10:31:04;96166.66;;;5.60;67.44
8717;BME280;4395;48.554;8.820;2023-03-01T10:33:15;96134.56;;;5.41;66.19
8717;BME280;4395;48.554;8.820;2023-03-01T10:35:22;96160.19;;;5.42;65.58
8717;BME280;4395;48.554;8.820;2023-03-01T10:37:25;96172.94;;;5.34;66.34
8717;BME280;4395;48.554;8.820;2023-03-01T10:39:29;96161.22;;;5.73;64.88
8717;BME280;4395;48.554;8.820;2023-03-01T10:41:32;96163.91;;;6.04;62.24
8717;BME280;4395;48.554;8.820;2023-03-01T10:43:45;96153.13;;;6.18;61.13
8717;BME280;4395;48.554;8.820;2023-03-01T10:45:49;96154.38;;;6.15;60.27
8717;BME280;4395;48.554;8.820;2023-03-01T10:48:03;96152.03;;;6.25;60.15
8717;BME280;4395;48.554;8.820;2023-03-01T10:50:18;96155.78;;;6.42;58.75
8717;BME280;4395;48.554;8.820;2023-03-01T10:52:24;96148.88;;;6.53;59.29
8717;BME280;4395;48.554;8.820;2023-03-01T10:54:29;96146.09;;;6.66;58.42
8717;BME280;4395;48.554;8.820;2023-03-01T10:56:46;96142.22;;;6.81;56.80
8717;BME280;4395;48.554;8.820;2023-03-01T10:58:59;96136.78;;;6.51;56.91
8717;BME280;4395;48.554;8.820;2023-03-01T11:01:04;96138.97;;;6.60;57.76
8717;BME280;4395;48.554;8.820;2023-03-01T11:03:12;96125.56;;;7.15;56.53
8717;BME280;4395;48.554;8.820;2023-03-01T11:05:25;96131.63;;;7.40;55.24
8717;BME280;4395;48.554;8.820;2023-03-01T11:07:29;96122.72;;;7.58;54.29
8717;BME280;4395;48.554;8.820;2023-03-01T11:09:33;96121.34;;;7.67;54.00
8717;BME280;4395;48.554;8.820;2023-03-01T11:11:39;96121.25;;;7.74;53.58
8717;BME280;4395;48.554;8.820;2023-03-01T11:13:50;96131.34;;;7.90;51.60